sensor_id;sensor_type;location;lat;lon;timestamp;pressure;altitude;pressure_sealevel;temperature;humidity
76592;BME280;65481;47.600;19.682;2023-07-29T00:03:55;99816.50;;;21.12;100.00
76592;BME280;65481;47.600;19.682;2023-07-29T00:08:56;99816.50;;;21.12;100.00
76592;BME280;65481;47.600;19.682;2023-07-29T00:13:56;99814.44;;;21.09;100.00
76592;BME280;65481;47.600;19.682;2023-07-29T00:18:57;99815.59;;;20.94;100.00
76592;BME280;65481;47.600;19.682;2023-07-29T00:23:57;99812.31;;;20.74;100.00
76592;BME280;65481;47.600;19.682;2023-07-29T00:28:58;99808.94;;;20.82;100.00
76592;BME280;65481;47.600;19.682;2023-07-29T00:33:58;99814.53;;;20.72;100.00
76592;BME280;65481;47.600;19.682;2023-07-29T00:38:59;99812.34;;;20.51;100.00
76592;BME280;65481;47.600;19.682;2023-07-29T00:43:59;99809.53;;;20.56;100.00
76592;BME280;65481;47.600;19.682;2023-07-29T00:49:00;99803.94;;;20.44;100.00
76592;BME280;65481;47.600;19.682;2023-07-29T00:54:00;99797.66;;;20.49;100.00
76592;BME280;65481;47.600;19.682;2023-07-29T00:59:01;99798.19;;;20.37;100.00
76592;BME280;65481;47.600;19.682;2023-07-29T01:04:02;99798.06;;;20.42;100.00
76592;BME280;65481;47.600;19.682;2023-07-29T01:09:05;99803.94;;;20.44;100.00
76592;BME280;65481;47.600;19.682;2023-07-29T01:24:48;99811.34;;;20.24;100.00
76592;BME280;65481;47.600;19.682;2023-07-29T01:29:48;99811.53;;;20.28;100.00
76592;BME280;65481;47.600;19.682;2023-07-29T01:34:59;99814.75;;;20.16;100.00
76592;BME280;65481;47.600;19.682;2023-07-29T01:40:00;99806.94;;;20.06;100.00
76592;BME280;65481;47.600;19.682;2023-07-29T01:45:01;99806.56;;;19.99;100.00
76592;BME280;65481;47.600;19.682;2023-07-29T01:50:02;99798.81;;;19.97;100.00
76592;BME280;65481;47.600;19.682;2023-07-29T01:55:04;99799.13;;;19.95;100.00
76592;BME280;65481;47.600;19.682;2023-07-29T02:00:05;99801.59;;;19.92;100.00
76592;BME280;65481;47.600;19.682;2023-07-29T02:05:06;99802.22;;;19.89;100.00
76592;BME280;65481;47.600;19.682;2023-07-29T02:10:07;99801.41;;;19.88;100.00
76592;BME280;65481;47.600;19.682;2023-07-29T02:15:08;99796.69;;;19.71;100.00
76592;BME280;65481;47.600;19.682;2023-07-29T02:20:10;99803.03;;;19.61;100.00
76592;BME280;65481;47.600;19.682;2023-07-29T02:25:11;99799.84;;;19.59;100.00
76592;BME280;65481;47.600;19.682;2023-07-29T02:30:11;99803.91;;;19.57;100.00
76592;BME280;65481;47.600;19.682;2023-07-29T02:35:12;99803.03;;;19.61;100.00
76592;BME280;65481;47.600;19.682;2023-07-29T02:40:13;99799.03;;;19.59;100.00
76592;BME280;65481;47.600;19.682;2023-07-29T02:45:13;99803.72;;;19.53;100.00
76592;BME280;65481;47.600;19.682;2023-07-29T02:50:14;99810.34;;;19.56;100.00
76592;BME280;65481;47.600;19.682;2023-07-29T02:55:14;99810.84;;;19.58;100.00
76592;BME280;65481;47.600;19.682;2023-07-29T03:00:15;99821.66;;;19.52;100.00
76592;BME280;65481;47.600;19.682;2023-07-29T03:05:36;99812.06;;;19.51;100.00
76592;BME280;65481;47.600;19.682;2023-07-29T03:10:37;99805.00;;;19.42;100.00
76592;BME280;65481;47.600;19.682;2023-07-29T03:15:38;99797.50;;;19.44;100.00
76592;BME280;65481;47.600;19.682;2023-07-29T03:20:38;99802.81;;;19.30;100.00
76592;BME280;65481;47.600;19.682;2023-07-29T03:25:39;99801.72;;;19.17;100.00
76592;BME280;65481;47.600;19.682;2023-07-29T03:30:39;99803.13;;;19.14;100.00
76592;BME280;65481;47.600;19.682;2023-07-29T03:35:40;99802.13;;;19.10;100.00
76592;BME280;65481;47.600;19.682;2023-07-29T03:40:44;99823.31;;;19.06;100.00
76592;BME280;65481;47.600;19.682;2023-07-29T03:45:45;99817.91;;;18.92;100.00
76592;BME280;65481;47.600;19.682;2023-07-29T03:50:46;99826.50;;;18.56;100.00
76592;BME280;65481;47.600;19.682;2023-07-29T03:55:46;99825.28;;;18.29;100.00
76592;BME280;65481;47.600;19.682;2023-07-29T04:00:47;99821.91;;;18.43;100.00
76592;BME280;65481;47.600;19.682;2023-07-29T04:05:47;99823.38;;;18.68;100.00
76592;BME280;65481;47.600;19.682;2023-07-29T04:10:48;99830.94;;;18.80;100.00
76592;BME280;65481;47.600;19.682;2023-07-29T04:15:49;99825.28;;;18.82;100.00
76592;BME280;65481;47.600;19.682;2023-07-29T04:20:49;99825.81;;;18.84;100.00
76592;BME280;65481;47.600;19.682;2023-07-29T04:25:50;99827.38;;;18.85;100.00
76592;BME280;65481;47.600;19.682;2023-07-29T04:30:52;99833.88;;;18.79;100.00
76592;BME280;65481;47.600;19.682;2023-07-29T04:35:52;99841.41;;;18.96;100.00
76592;BME280;65481;47.600;19.682;2023-07-29T04:40:53;99843.50;;;19.13;100.00
76592;BME280;65481;47.600;19.682;2023-07-29T04:45:53;99843.63;;;19.21;100.00
76592;BME280;65481;47.600;19.682;2023-07-29T04:50:54;99851.75;;;19.30;100.00
76592;BME280;65481;47.600;19.682;2023-07-29T04:55:54;99848.78;;;19.46;100.00
76592;BME280;65481;47.600;19.682;2023-07-29T05:00:58;99853.47;;;19.54;100.00
76592;BME280;65481;47.600;19.682;2023-07-29T05:05:59;99856.44;;;19.80;100.00
76592;BME280;65481;47.600;19.682;2023-07-29T05:10:59;99851.53;;;20.10;100.00
76592;BME280;65481;47.600;19.682;2023-07-29T05:16:00;99856.88;;;20.24;100.00
76592;BME280;65481;47.600;19.682;2023-07-29T05:21:00;99856.63;;;20.71;100.00
76592;BME280;65481;47.600;19.682;2023-07-29T05:26:01;99858.03;;;21.23;100.00
76592;BME280;65481;47.600;19.682;2023-07-29T05:31:01;99858.75;;;21.87;100.00
76592;BME280;65481;47.600;19.682;2023-07-29T05:36:02;99853.16;;;22.67;100.00
76592;BME280;65481;47.600;19.682;2023-07-29T05:41:03;99854.66;;;23.51;100.00
76592;BME280;65481;47.600;19.682;2023-07-29T05:46:03;99860.56;;;24.26;100.00
76592;BME280;65481;47.600;19.682;2023-07-29T05:51:03;99861.19;;;24.99;100.00
76592;BME280;65481;47.600;19.682;2023-07-29T05:56:05;99874.91;;;24.93;98.79
76592;BME280;65481;47.600;19.682;2023-07-29T06:01:06;99880.16;;;25.61;93.98
76592;BME280;65481;47.600;19.682;2023-07-29T06:06:06;99883.13;;;26.34;90.92
76592;BME280;65481;47.600;19.682;2023-07-29T06:11:07;99888.22;;;27.08;86.17
76592;BME280;65481;47.600;19.682;2023-07-29T06:16:07;99884.72;;;27.56;80.37
76592;BME280;65481;47.600;19.682;2023-07-29T06:21:08;99878.81;;;27.86;74.21
76592;BME280;65481;47.600;19.682;2023-07-29T06:26:12;99888.75;;;27.98;71.53
76592;BME280;65481;47.600;19.682;2023-07-29T06:31:13;99892.53;;;28.48;68.26
76592;BME280;65481;47.600;19.682;2023-07-29T06:36:13;99891.44;;;29.15;65.56
76592;BME280;65481;47.600;19.682;2023-07-29T06:41:14;99903.16;;;29.70;62.16
76592;BME280;65481;47.600;19.682;2023-07-29T06:46:15;99897.22;;;29.60;60.53
76592;BME280;65481;47.600;19.682;2023-07-29T06:51:15;99887.19;;;29.18;64.42
76592;BME280;65481;47.600;19.682;2023-07-29T06:56:16;99885.94;;;28.69;64.40
76592;BME280;65481;47.600;19.682;2023-07-29T07:01:16;99888.16;;;28.83;64.25
76592;BME280;65481;47.600;19.682;2023-07-29T07:06:17;99892.59;;;29.38;61.39
76592;BME280;65481;47.600;19.682;2023-07-29T07:11:18;99886.72;;;30.16;58.46
76592;BME280;65481;47.600;19.682;2023-07-29T07:16:19;99896.97;;;30.99;58.30
76592;BME280;65481;47.600;19.682;2023-07-29T07:21:19;99897.16;;;30.79;55.76
76592;BME280;65481;47.600;19.682;2023-07-29T07:26:20;99898.53;;;31.45;53.17
76592;BME280;65481;47.600;19.682;2023-07-29T07:31:21;99890.66;;;31.92;53.66
76592;BME280;65481;47.600;19.682;2023-07-29T07:36:22;99878.41;;;32.41;49.40
76592;BME280;65481;47.600;19.682;2023-07-29T07:41:22;99877.34;;;33.04;47.83
76592;BME280;65481;47.600;19.682;2023-07-29T07:46:24;99883.19;;;33.53;48.26
76592;BME280;65481;47.600;19.682;2023-07-29T07:51:24;99885.16;;;33.45;46.37
76592;BME280;65481;47.600;19.682;2023-07-29T07:56:25;99881.22;;;33.61;44.88
76592;BME280;65481;47.600;19.682;2023-07-29T08:01:25;99873.53;;;34.34;44.24
76592;BME280;65481;47.600;19.682;2023-07-29T08:06:26;99877.91;;;34.91;40.82
76592;BME280;65481;47.600;19.682;2023-07-29T08:11:26;99869.69;;;34.91;40.90
76592;BME280;65481;47.600;19.682;2023-07-29T08:16:27;99868.03;;;34.45;40.34
76592;BME280;65481;47.600;19.682;2023-07-29T08:21:27;99861.66;;;34.62;39.58
76592;BME280;65481;47.600;19.682;2023-07-29T08:26:28;99857.19;;;34.86;38.73
76592;BME280;65481;47.600;19.682;2023-07-29T08:31:28;99854.44;;;34.23;39.04
76592;BME280;65481;47.600;19.682;2023-07-29T08:36:29;99851.13;;;34.57;40.92
76592;BME280;65481;47.600;19.682;2023-07-29T08:41:35;99847.84;;;34.80;38.18
76592;BME280;65481;47.600;19.682;2023-07-29T08:46:39;99846.66;;;35.27;36.20
76592;BME280;65481;47.600;19.682;2023-07-29T08:51:42;99843.06;;;35.75;35.12
76592;BME280;65481;47.600;19.682;2023-07-29T08:56:42;99853.69;;;36.04;35.00
76592;BME280;65481;47.600;19.682;2023-07-29T09:01:43;99841.47;;;36.36;33.81
76592;BME280;65481;47.600;19.682;2023-07-29T09:06:45;99848.59;;;36.34;33.37
76592;BME280;65481;47.600;19.682;2023-07-29T09:11:46;99845.63;;;36.52;32.64
76592;BME280;65481;47.600;19.682;2023-07-29T09:16:46;99849.97;;;35.87;34.48
76592;BME280;65481;47.600;19.682;2023-07-29T09:21:49;99842.47;;;36.22;32.72
76592;BME280;65481;47.600;19.682;2023-07-29T09:26:50;99843.06;;;36.89;32.03
76592;BME280;65481;47.600;19.682;2023-07-29T09:31:50;99840.28;;;37.36;31.63
76592;BME280;65481;47.600;19.682;2023-07-29T09:36:51;99839.38;;;36.99;31.75
76592;BME280;65481;47.600;19.682;2023-07-29T09:41:52;99829.91;;;36.76;31.10
76592;BME280;65481;47.600;19.682;2023-07-29T09:46:54;99819.75;;;36.49;31.56
76592;BME280;65481;47.600;19.682;2023-07-29T09:51:56;99825.97;;;37.01;31.02
76592;BME280;65481;47.600;19.682;2023-07-29T09:56:56;99809.22;;;37.60;29.10
76592;BME280;65481;47.600;19.682;2023-07-29T10:01:57;99798.78;;;37.51;29.05
76592;BME280;65481;47.600;19.682;2023-07-29T10:06:58;99798.34;;;37.52;29.31
76592;BME280;65481;47.600;19.682;2023-07-29T10:11:59;99804.97;;;38.12;28.32
76592;BME280;65481;47.600;19.682;2023-07-29T10:17:00;99794.47;;;37.86;27.11
76592;BME280;65481;47.600;19.682;2023-07-29T10:22:02;99791.53;;;37.17;27.79
76592;BME280;65481;47.600;19.682;2023-07-29T10:27:03;99791.63;;;37.94;27.73
76592;BME280;65481;47.600;19.682;2023-07-29T10:32:07;99786.56;;;37.88;27.74
76592;BME280;65481;47.600;19.682;2023-07-29T10:37:09;99792.31;;;36.18;29.13
76592;BME280;65481;47.600;19.682;2023-07-29T10:42:09;99786.09;;;37.13;28.38
76592;BME280;65481;47.600;19.682;2023-07-29T10:47:14;99780.16;;;35.19;30.07
76592;BME280;65481;47.600;19.682;2023-07-29T10:52:16;99779.78;;;36.17;29.45
76592;BME280;65481;47.600;19.682;2023-07-29T10:57:37;99771.97;;;36.67;27.76
76592;BME280;65481;47.600;19.682;2023-07-29T11:02:38;99774.09;;;37.03;27.16
76592;BME280;65481;47.600;19.682;2023-07-29T11:07:48;99762.50;;;37.16;26.91
76592;BME280;65481;47.600;19.682;2023-07-29T11:12:50;99776.25;;;37.56;27.11
76592;BME280;65481;47.600;19.682;2023-07-29T11:17:59;99774.13;;;36.01;28.88
76592;BME280;65481;47.600;19.682;2023-07-29T11:23:02;99772.78;;;35.51;29.61
76592;BME280;65481;47.600;19.682;2023-07-29T11:28:03;99768.84;;;36.89;27.73
76592;BME280;65481;47.600;19.682;2023-07-29T11:33:03;99772.13;;;36.80;27.38
76592;BME280;65481;47.600;19.682;2023-07-29T11:38:04;99761.72;;;37.15;27.34
76592;BME280;65481;47.600;19.682;2023-07-29T11:43:04;99754.50;;;37.01;26.95
76592;BME280;65481;47.600;19.682;2023-07-29T11:48:06;99754.44;;;37.05;26.99
76592;BME280;65481;47.600;19.682;2023-07-29T11:53:07;99742.47;;;36.91;27.21
76592;BME280;65481;47.600;19.682;2023-07-29T11:58:07;99752.59;;;36.98;26.93
76592;BME280;65481;47.600;19.682;2023-07-29T12:03:08;99746.19;;;37.25;26.61
76592;BME280;65481;47.600;19.682;2023-07-29T12:08:10;99740.84;;;35.68;28.55
76592;BME280;65481;47.600;19.682;2023-07-29T12:13:11;99747.50;;;35.32;29.42
76592;BME280;65481;47.600;19.682;2023-07-29T12:18:12;99747.69;;;36.38;28.46
76592;BME280;65481;47.600;19.682;2023-07-29T12:23:12;99742.38;;;37.19;28.05
76592;BME280;65481;47.600;19.682;2023-07-29T12:28:13;99734.56;;;37.37;27.71
76592;BME280;65481;47.600;19.682;2023-07-29T12:33:33;99715.88;;;37.28;28.17
76592;BME280;65481;47.600;19.682;2023-07-29T12:38:34;99726.47;;;37.30;26.84
76592;BME280;65481;47.600;19.682;2023-07-29T12:43:35;99720.75;;;37.01;27.17
76592;BME280;65481;47.600;19.682;2023-07-29T12:48:36;99716.41;;;36.79;28.14
76592;BME280;65481;47.600;19.682;2023-07-29T12:53:36;99718.75;;;36.33;29.07
76592;BME280;65481;47.600;19.682;2023-07-29T12:58:37;99707.41;;;35.49;29.66
76592;BME280;65481;47.600;19.682;2023-07-29T13:03:37;99717.09;;;35.23;30.08
76592;BME280;65481;47.600;19.682;2023-07-29T13:08:38;99711.63;;;35.19;29.58
76592;BME280;65481;47.600;19.682;2023-07-29T13:13:38;99692.75;;;35.59;29.13
76592;BME280;65481;47.600;19.682;2023-07-29T13:18:39;99697.88;;;35.57;29.44
76592;BME280;65481;47.600;19.682;2023-07-29T13:23:40;99698.47;;;36.00;27.97
76592;BME280;65481;47.600;19.682;2023-07-29T13:28:41;99692.53;;;36.52;27.26
76592;BME280;65481;47.600;19.682;2023-07-29T13:33:41;99692.09;;;36.06;26.51
76592;BME280;65481;47.600;19.682;2023-07-29T13:38:42;99692.75;;;35.59;26.92
76592;BME280;65481;47.600;19.682;2023-07-29T13:43:42;99682.13;;;35.30;27.82
76592;BME280;65481;47.600;19.682;2023-07-29T13:48:43;99685.81;;;35.51;27.89
76592;BME280;65481;47.600;19.682;2023-07-29T13:53:43;99680.94;;;35.31;29.85
76592;BME280;65481;47.600;19.682;2023-07-29T13:58:44;99673.50;;;34.55;30.50
76592;BME280;65481;47.600;19.682;2023-07-29T14:03:44;99658.19;;;34.62;30.36
76592;BME280;65481;47.600;19.682;2023-07-29T14:08:45;99649.44;;;34.78;30.51
76592;BME280;65481;47.600;19.682;2023-07-29T14:13:45;99643.91;;;34.43;30.63
76592;BME280;65481;47.600;19.682;2023-07-29T14:18:46;99641.72;;;34.65;29.89
76592;BME280;65481;47.600;19.682;2023-07-29T14:23:46;99643.22;;;34.73;30.79
76592;BME280;65481;47.600;19.682;2023-07-29T14:28:47;99635.09;;;34.63;30.47
76592;BME280;65481;47.600;19.682;2023-07-29T14:33:47;99626.41;;;34.71;29.88
76592;BME280;65481;47.600;19.682;2023-07-29T14:38:49;99624.63;;;34.88;30.80
76592;BME280;65481;47.600;19.682;2023-07-29T14:43:50;99633.22;;;34.94;30.90
76592;BME280;65481;47.600;19.682;2023-07-29T14:48:50;99625.59;;;34.33;31.86
76592;BME280;65481;47.600;19.682;2023-07-29T14:53:51;99623.97;;;33.93;31.60
76592;BME280;65481;47.600;19.682;2023-07-29T14:58:51;99615.97;;;34.13;31.53
76592;BME280;65481;47.600;19.682;2023-07-29T15:03:52;99619.91;;;34.54;30.73
76592;BME280;65481;47.600;19.682;2023-07-29T15:08:52;99624.00;;;34.35;30.33
76592;BME280;65481;47.600;19.682;2023-07-29T15:13:53;99625.91;;;34.42;30.66
76592;BME280;65481;47.600;19.682;2023-07-29T15:18:53;99618.31;;;34.15;30.85
76592;BME280;65481;47.600;19.682;2023-07-29T15:23:54;99609.94;;;33.84;31.66
76592;BME280;65481;47.600;19.682;2023-07-29T15:28:54;99618.66;;;33.64;32.32
76592;BME280;65481;47.600;19.682;2023-07-29T15:33:55;99612.28;;;33.11;32.61
76592;BME280;65481;47.600;19.682;2023-07-29T15:38:55;99615.94;;;32.50;32.34
76592;BME280;65481;47.600;19.682;2023-07-29T15:43:56;99621.81;;;32.34;32.97
76592;BME280;65481;47.600;19.682;2023-07-29T15:48:56;99619.06;;;32.16;33.53
76592;BME280;65481;47.600;19.682;2023-07-29T15:53:59;99619.44;;;31.85;33.92
76592;BME280;65481;47.600;19.682;2023-07-29T15:59:00;99631.84;;;31.61;34.22
76592;BME280;65481;47.600;19.682;2023-07-29T16:04:00;99645.38;;;31.32;34.05
76592;BME280;65481;47.600;19.682;2023-07-29T16:09:01;99649.16;;;31.09;34.89
76592;BME280;65481;47.600;19.682;2023-07-29T16:14:06;99658.03;;;30.99;35.07
76592;BME280;65481;47.600;19.682;2023-07-29T16:19:06;99659.88;;;30.80;35.76
76592;BME280;65481;47.600;19.682;2023-07-29T16:24:09;99671.84;;;30.65;36.77
76592;BME280;65481;47.600;19.682;2023-07-29T16:29:09;99678.31;;;30.49;37.28
76592;BME280;65481;47.600;19.682;2023-07-29T16:34:10;99691.41;;;30.33;37.99
76592;BME280;65481;47.600;19.682;2023-07-29T16:39:10;99688.59;;;30.26;38.24
76592;BME280;65481;47.600;19.682;2023-07-29T16:44:11;99702.50;;;30.13;38.86
76592;BME280;65481;47.600;19.682;2023-07-29T16:49:11;99688.22;;;29.89;40.58
76592;BME280;65481;47.600;19.682;2023-07-29T16:54:12;99705.22;;;29.79;40.08
76592;BME280;65481;47.600;19.682;2023-07-29T16:59:17;99692.69;;;29.71;40.75
76592;BME280;65481;47.600;19.682;2023-07-29T17:04:18;99701.09;;;29.58;40.99
76592;BME280;65481;47.600;19.682;2023-07-29T17:09:18;99704.50;;;29.48;41.62
76592;BME280;65481;47.600;19.682;2023-07-29T17:14:19;99702.69;;;29.32;42.95
76592;BME280;65481;47.600;19.682;2023-07-29T17:19:19;99700.38;;;29.04;44.30
76592;BME280;65481;47.600;19.682;2023-07-29T17:24:20;99695.72;;;29.05;45.40
76592;BME280;65481;47.600;19.682;2023-07-29T17:29:21;99701.59;;;29.07;45.80
76592;BME280;65481;47.600;19.682;2023-07-29T17:34:21;99695.63;;;28.97;47.57
76592;BME280;65481;47.600;19.682;2023-07-29T17:39:22;99692.56;;;28.99;47.66
76592;BME280;65481;47.600;19.682;2023-07-29T17:44:22;99699.44;;;28.93;48.33
76592;BME280;65481;47.600;19.682;2023-07-29T17:49:23;99691.75;;;28.71;49.03
76592;BME280;65481;47.600;19.682;2023-07-29T17:54:24;99691.88;;;28.55;50.07
76592;BME280;65481;47.600;19.682;2023-07-29T17:59:24;99687.66;;;28.35;53.00
76592;BME280;65481;47.600;19.682;2023-07-29T18:04:24;99684.69;;;28.20;55.52
76592;BME280;65481;47.600;19.682;2023-07-29T18:09:25;99693.56;;;27.78;61.21
76592;BME280;65481;47.600;19.682;2023-07-29T18:14:25;99695.19;;;27.43;64.58
76592;BME280;65481;47.600;19.682;2023-07-29T18:19:26;99706.44;;;27.26;64.80
76592;BME280;65481;47.600;19.682;2023-07-29T18:24:30;99707.28;;;27.10;65.40
76592;BME280;65481;47.600;19.682;2023-07-29T18:29:32;99715.03;;;26.96;66.81
76592;BME280;65481;47.600;19.682;2023-07-29T18:34:32;99724.72;;;26.97;65.81
76592;BME280;65481;47.600;19.682;2023-07-29T18:39:33;99729.56;;;26.87;64.18
76592;BME280;65481;47.600;19.682;2023-07-29T18:44:33;99744.91;;;26.83;63.66
76592;BME280;65481;47.600;19.682;2023-07-29T18:49:34;99749.72;;;26.74;65.14
76592;BME280;65481;47.600;19.682;2023-07-29T18:54:35;99754.41;;;26.61;64.03
76592;BME280;65481;47.600;19.682;2023-07-29T18:59:37;99762.94;;;26.47;64.91
76592;BME280;65481;47.600;19.682;2023-07-29T19:04:38;99765.34;;;26.36;64.86
76592;BME280;65481;47.600;19.682;2023-07-29T19:09:45;99763.75;;;26.19;65.86
76592;BME280;65481;47.600;19.682;2023-07-29T19:14:46;99759.16;;;26.07;66.78
76592;BME280;65481;47.600;19.682;2023-07-29T19:19:48;99752.34;;;25.97;67.56
76592;BME280;65481;47.600;19.682;2023-07-29T19:24:49;99751.53;;;25.97;67.62
76592;BME280;65481;47.600;19.682;2023-07-29T19:29:50;99746.72;;;25.90;67.15
76592;BME280;65481;47.600;19.682;2023-07-29T19:34:55;99737.38;;;25.88;67.96
76592;BME280;65481;47.600;19.682;2023-07-29T19:39:56;99748.81;;;25.68;68.45
76592;BME280;65481;47.600;19.682;2023-07-29T19:44:57;99749.16;;;25.67;68.24
76592;BME280;65481;47.600;19.682;2023-07-29T19:49:58;99758.38;;;25.66;69.23
76592;BME280;65481;47.600;19.682;2023-07-29T19:54:59;99757.03;;;25.60;70.30
76592;BME280;65481;47.600;19.682;2023-07-29T20:00:00;99743.34;;;25.52;69.86
76592;BME280;65481;47.600;19.682;2023-07-29T20:05:01;99741.09;;;25.42;70.44
76592;BME280;65481;47.600;19.682;2023-07-29T20:10:02;99739.38;;;25.37;70.19
76592;BME280;65481;47.600;19.682;2023-07-29T20:15:03;99725.44;;;25.35;70.39
76592;BME280;65481;47.600;19.682;2023-07-29T20:20:05;99733.13;;;25.08;71.90
76592;BME280;65481;47.600;19.682;2023-07-29T20:25:07;99724.81;;;24.89;72.61
76592;BME280;65481;47.600;19.682;2023-07-29T20:30:08;99717.78;;;24.50;75.48
76592;BME280;65481;47.600;19.682;2023-07-29T20:35:09;99697.19;;;24.00;78.87
76592;BME280;65481;47.600;19.682;2023-07-29T20:40:10;99700.94;;;23.44;82.13
76592;BME280;65481;47.600;19.682;2023-07-29T20:45:11;99709.91;;;23.48;83.61
76592;BME280;65481;47.600;19.682;2023-07-29T20:50:12;99721.38;;;23.45;84.26
76592;BME280;65481;47.600;19.682;2023-07-29T20:55:13;99740.84;;;23.42;84.52
76592;BME280;65481;47.600;19.682;2023-07-29T21:00:14;99762.56;;;23.37;84.84
76592;BME280;65481;47.600;19.682;2023-07-29T21:05:14;99774.63;;;23.31;85.11
76592;BME280;65481;47.600;19.682;2023-07-29T21:10:15;99773.47;;;23.02;87.47
76592;BME280;65481;47.600;19.682;2023-07-29T21:15:16;99773.69;;;22.88;88.57
76592;BME280;65481;47.600;19.682;2023-07-29T21:20:16;99771.06;;;22.61;90.15
76592;BME280;65481;47.600;19.682;2023-07-29T21:25:17;99782.94;;;22.51;90.94
76592;BME280;65481;47.600;19.682;2023-07-29T21:30:17;99793.22;;;22.49;91.42
76592;BME280;65481;47.600;19.682;2023-07-29T21:35:18;99794.03;;;22.32;92.09
76592;BME280;65481;47.600;19.682;2023-07-29T21:40:18;99785.63;;;22.25;92.39
76592;BME280;65481;47.600;19.682;2023-07-29T21:45:18;99778.84;;;22.36;91.68
76592;BME280;65481;47.600;19.682;2023-07-29T21:50:19;99791.81;;;22.43;91.60
76592;BME280;65481;47.600;19.682;2023-07-29T21:55:20;99789.91;;;22.44;91.48
76592;BME280;65481;47.600;19.682;2023-07-29T22:00:20;99789.13;;;22.52;90.60
76592;BME280;65481;47.600;19.682;2023-07-29T22:05:21;99791.00;;;22.34;91.67
76592;BME280;65481;47.600;19.682;2023-07-29T22:10:21;99790.88;;;22.13;92.23
76592;BME280;65481;47.600;19.682;2023-07-29T22:15:22;99792.72;;;21.77;92.83
76592;BME280;65481;47.600;19.682;2023-07-29T22:20:22;99800.50;;;21.38;94.13
76592;BME280;65481;47.600;19.682;2023-07-29T22:25:23;99806.75;;;20.84;97.60
76592;BME280;65481;47.600;19.682;2023-07-29T22:30:23;99800.41;;;20.80;98.82
76592;BME280;65481;47.600;19.682;2023-07-29T22:35:24;99802.53;;;20.92;98.86
76592;BME280;65481;47.600;19.682;2023-07-29T22:40:24;99820.56;;;21.09;99.00
76592;BME280;65481;47.600;19.682;2023-07-29T22:45:25;99815.03;;;21.37;98.09
76592;BME280;65481;47.600;19.682;2023-07-29T22:50:25;99818.94;;;21.31;98.24
76592;BME280;65481;47.600;19.682;2023-07-29T22:55:26;99824.00;;;21.32;98.80
76592;BME280;65481;47.600;19.682;2023-07-29T23:00:26;99828.72;;;21.27;98.87
76592;BME280;65481;47.600;19.682;2023-07-29T23:05:27;99837.50;;;21.18;99.26
76592;BME280;65481;47.600;19.682;2023-07-29T23:10:27;99839.31;;;21.32;98.99
76592;BME280;65481;47.600;19.682;2023-07-29T23:15:32;99827.56;;;21.59;97.43
76592;BME280;65481;47.600;19.682;2023-07-29T23:20:34;99829.81;;;21.66;96.97
76592;BME280;65481;47.600;19.682;2023-07-29T23:25:35;99816.78;;;21.51;97.09
76592;BME280;65481;47.600;19.682;2023-07-29T23:30:36;99819.88;;;21.26;97.31
76592;BME280;65481;47.600;19.682;2023-07-29T23:35:38;99814.75;;;21.07;98.06
76592;BME280;65481;47.600;19.682;2023-07-29T23:40:38;99809.56;;;21.11;97.87
76592;BME280;65481;47.600;19.682;2023-07-29T23:45:39;99811.28;;;20.84;98.94
76592;BME280;65481;47.600;19.682;2023-07-29T23:50:39;99813.91;;;20.75;99.57
76592;BME280;65481;47.600;19.682;2023-07-29T23:55:40;99800.03;;;20.50;100.00
